createdAt,value
2018-02-17T00:01:21.857Z,56.65
2018-02-17T00:03:49.407Z,55.80
2018-02-17T00:06:16.950Z,48.10
2018-02-17T00:08:44.603Z,43.23
2018-02-17T00:11:12.201Z,41.72
2018-02-17T00:13:39.745Z,40.33
2018-02-17T00:16:07.323Z,42.38
2018-02-17T00:18:34.851Z,40.50
2018-02-17T00:21:02.397Z,41.22
2018-02-17T00:23:30.060Z,41.70
2018-02-17T00:25:57.603Z,44.70
2018-02-17T00:28:25.141Z,40.40
2018-02-17T00:30:52.729Z,41.97
2018-02-17T00:33:20.268Z,39.92
2018-02-17T00:35:47.791Z,42.25
2018-02-17T00:38:15.341Z,42.50
2018-02-17T00:40:42.870Z,41.85
2018-02-17T00:43:10.395Z,41.50
2018-02-17T00:45:37.946Z,42.50
2018-02-17T00:48:05.479Z,40.47
2018-02-17T00:50:33.014Z,41.20
2018-02-17T00:53:00.562Z,42.05
2018-02-17T00:55:28.082Z,42.77
2018-02-17T00:57:55.599Z,42.60
2018-02-17T01:00:23.253Z,41.87
2018-02-17T01:02:50.843Z,40.57
2018-02-17T01:05:18.371Z,44.30
2018-02-17T01:07:45.916Z,41.88
2018-02-17T01:10:13.469Z,41.83
2018-02-17T01:12:41.289Z,43.38
2018-02-17T01:15:08.874Z,42.62
2018-02-17T01:17:36.406Z,45.10
2018-02-17T01:20:03.946Z,43.55
2018-02-17T01:22:31.495Z,42.28
2018-02-17T01:24:59.038Z,44.72
2018-02-17T01:27:26.561Z,44.55
2018-02-17T01:29:54.116Z,43.35
2018-02-17T01:32:21.676Z,41.75
2018-02-17T01:34:49.212Z,41.80
2018-02-17T01:37:17.124Z,44.30
2018-02-17T01:39:44.697Z,43.90
2018-02-17T01:42:12.227Z,42.55
2018-02-17T01:44:39.754Z,42.35
2018-02-17T01:47:07.295Z,41.25
2018-02-17T01:49:34.820Z,41.65
2018-02-17T01:52:02.355Z,40.17
2018-02-17T01:54:29.911Z,42.50
2018-02-17T01:56:57.445Z,43.53
2018-02-17T01:59:24.986Z,45.47
2018-02-17T02:01:52.582Z,40.25
2018-02-17T02:04:20.111Z,41.53
2018-02-17T02:06:47.625Z,40.47
2018-02-17T02:09:15.188Z,41.15
2018-02-17T02:11:42.737Z,41.40
2018-02-17T02:14:10.285Z,41.90
2018-02-17T02:16:37.852Z,42.15
2018-02-17T02:19:05.392Z,42.53
2018-02-17T02:21:32.931Z,43.45
2018-02-17T02:24:00.487Z,44.00
2018-02-17T02:26:28.031Z,42.50
2018-02-17T02:28:55.567Z,43.45
2018-02-17T02:31:23.114Z,45.88
2018-02-17T02:33:50.643Z,43.63
2018-02-17T02:36:18.172Z,42.50
2018-02-17T02:38:45.729Z,44.75
2018-02-17T02:41:13.282Z,43.30
2018-02-17T02:43:40.841Z,42.60
2018-02-17T02:46:08.382Z,42.67
2018-02-17T02:48:35.901Z,42.70
2018-02-17T02:51:03.421Z,43.80
2018-02-17T02:53:30.982Z,43.35
2018-02-17T02:55:58.515Z,44.20
2018-02-17T02:58:26.163Z,44.65
2018-02-17T03:00:53.742Z,40.67
2018-02-17T03:03:21.267Z,44.78
2018-02-17T03:05:48.805Z,41.80
2018-02-17T03:08:16.351Z,38.50
2018-02-17T03:10:43.883Z,42.45
2018-02-17T03:13:11.424Z,34.35
2018-02-17T03:15:38.996Z,38.85
2018-02-17T03:18:06.523Z,38.38
2018-02-17T03:20:34.058Z,36.05
2018-02-17T03:23:01.619Z,34.85
2018-02-17T03:25:29.161Z,30.00
2018-02-17T03:27:56.702Z,31.00
2018-02-17T03:30:24.317Z,30.42
2018-02-17T03:32:51.849Z,29.17
2018-02-17T03:35:19.371Z,33.10
2018-02-17T03:37:46.925Z,32.58
2018-02-17T03:40:14.455Z,31.35
2018-02-17T03:42:41.989Z,30.25
2018-02-17T03:45:09.549Z,32.22
2018-02-17T03:47:37.089Z,34.47
2018-02-17T03:50:04.602Z,32.22
2018-02-17T03:52:32.159Z,33.17
2018-02-17T03:54:59.685Z,33.45
2018-02-17T03:57:27.219Z,35.20
2018-02-17T03:59:54.762Z,36.15
2018-02-17T04:02:22.318Z,35.65
2018-02-17T04:04:49.851Z,34.42
2018-02-17T04:07:17.391Z,35.20
2018-02-17T04:09:44.933Z,32.38
2018-02-17T04:12:12.478Z,31.77
2018-02-17T04:14:40.031Z,32.83
2018-02-17T04:17:07.612Z,33.30
2018-02-17T04:19:35.183Z,32.97
2018-02-17T04:22:02.732Z,33.70
2018-02-17T04:24:30.298Z,34.28
2018-02-17T04:26:57.829Z,29.67
2018-02-17T04:29:25.348Z,29.50
2018-02-17T04:31:52.902Z,29.75
2018-02-17T04:34:20.453Z,28.67
2018-02-17T04:36:48.015Z,28.70
2018-02-17T04:39:15.578Z,28.62
2018-02-17T04:41:44.659Z,28.33
2018-02-17T04:44:17.730Z,29.80
2018-02-17T04:46:50.031Z,26.55
2018-02-17T04:49:17.586Z,27.45
2018-02-17T04:51:50.582Z,27.17
2018-02-17T04:54:33.838Z,27.70
2018-02-17T04:57:02.180Z,28.50
2018-02-17T04:59:35.104Z,29.40
2018-02-17T05:02:08.058Z,30.77
2018-02-17T05:04:38.155Z,27.90
2018-02-17T05:07:22.266Z,27.90
2018-02-17T05:09:50.658Z,30.02
2018-02-17T05:12:18.190Z,32.08
2018-02-17T05:14:48.618Z,28.95
2018-02-17T05:17:21.511Z,30.92
2018-02-17T05:19:54.501Z,37.92
2018-02-17T05:22:24.528Z,40.10
2018-02-17T05:24:57.633Z,39.30
2018-02-17T05:30:30.036Z,38.97
2018-02-17T05:33:17.293Z,39.75
2018-02-17T05:35:59.745Z,41.83
2018-02-17T05:38:27.266Z,42.58
2018-02-17T05:41:04.802Z,43.00
2018-02-17T05:43:32.345Z,43.53
2018-02-17T05:46:02.414Z,43.55
2018-02-17T05:48:32.405Z,42.20
2018-02-17T05:50:59.960Z,41.90
2018-02-17T05:53:27.497Z,40.22
2018-02-17T05:55:55.060Z,45.33
2018-02-17T05:58:22.590Z,42.53
2018-02-17T06:00:50.143Z,47.50
2018-02-17T06:03:17.664Z,40.37
2018-02-17T06:05:45.204Z,38.20
2018-02-17T06:08:12.764Z,40.30
2018-02-17T06:10:40.300Z,40.53
2018-02-17T06:13:07.841Z,38.10
2018-02-17T06:15:35.449Z,40.30
2018-02-17T06:18:02.984Z,45.33
2018-02-17T06:20:30.518Z,41.90
2018-02-17T06:22:58.105Z,42.60
2018-02-17T06:25:25.641Z,40.17
2018-02-17T06:27:53.157Z,39.10
2018-02-17T06:30:20.770Z,37.67
2018-02-17T06:32:48.305Z,37.40
2018-02-17T06:35:15.885Z,34.80
2018-02-17T06:37:43.430Z,36.33
2018-02-17T06:40:10.993Z,36.00
2018-02-17T06:42:38.527Z,34.70
2018-02-17T06:45:06.095Z,36.50
2018-02-17T06:47:33.634Z,32.63
2018-02-17T06:50:01.169Z,33.53
2018-02-17T06:52:28.728Z,31.47
2018-02-17T06:54:56.284Z,33.57
2018-02-17T06:57:23.841Z,30.00
2018-02-17T06:59:51.412Z,33.30
2018-02-17T07:02:18.985Z,31.13
2018-02-17T07:04:46.747Z,40.23
2018-02-17T07:07:14.275Z,55.70
2018-02-17T07:09:41.973Z,53.60
2018-02-17T07:12:09.505Z,47.77
2018-02-17T07:14:37.018Z,39.57
2018-02-17T07:17:04.562Z,33.83
2018-02-17T07:19:32.100Z,31.23
2018-02-17T07:21:59.642Z,33.40
2018-02-17T07:24:27.225Z,35.17
2018-02-17T07:26:55.013Z,32.43
2018-02-17T07:29:22.559Z,34.20
2018-02-17T07:31:50.225Z,33.77
2018-02-17T07:34:17.871Z,32.50
2018-02-17T07:36:45.405Z,35.90
2018-02-17T07:39:12.961Z,32.53
2018-02-17T07:41:40.501Z,34.57
2018-02-17T07:44:08.041Z,33.33
2018-02-17T07:46:36.561Z,33.40
2018-02-17T07:49:04.079Z,36.83
2018-02-17T07:51:31.717Z,32.97
2018-02-17T07:53:59.367Z,33.70
2018-02-17T07:56:26.917Z,35.27
2018-02-17T07:58:54.705Z,34.63
2018-02-17T08:01:22.262Z,36.30
2018-02-17T08:03:49.800Z,36.30
2018-02-17T08:06:17.419Z,38.67
2018-02-17T08:08:44.976Z,40.30
2018-02-17T08:11:12.509Z,35.70
2018-02-17T08:13:40.050Z,36.83
2018-02-17T08:16:07.598Z,37.63
2018-02-17T08:18:35.128Z,36.63
2018-02-17T08:21:02.650Z,36.33
2018-02-17T08:23:30.229Z,36.53
2018-02-17T08:25:57.746Z,39.97
2018-02-17T08:28:25.273Z,39.97
2018-02-17T08:30:52.830Z,41.73
2018-02-17T08:33:20.349Z,42.67
2018-02-17T08:35:47.881Z,40.10
2018-02-17T08:38:15.418Z,38.37
2018-02-17T08:40:43.025Z,38.47
2018-02-17T08:43:10.552Z,34.83
2018-02-17T08:45:38.094Z,36.23
2018-02-17T08:48:05.634Z,35.43
2018-02-17T08:50:33.154Z,35.93
2018-02-17T08:53:00.700Z,36.50
2018-02-17T08:55:28.227Z,36.53
2018-02-17T08:57:55.772Z,37.13
2018-02-17T09:00:23.354Z,32.20
2018-02-17T09:02:50.886Z,34.40
2018-02-17T09:05:18.445Z,32.70
2018-02-17T09:07:46.007Z,33.37
2018-02-17T09:10:13.545Z,32.33
2018-02-17T09:12:41.118Z,31.60
2018-02-17T09:15:08.733Z,29.30
2018-02-17T09:17:36.272Z,29.60
2018-02-17T09:20:03.872Z,32.23
2018-02-17T09:22:31.522Z,31.37
2018-02-17T09:24:59.082Z,31.53
2018-02-17T09:27:26.621Z,30.90
2018-02-17T09:29:54.341Z,31.83
2018-02-17T09:32:22.007Z,33.23
2018-02-17T09:34:49.547Z,32.93
2018-02-17T09:37:17.057Z,33.90
2018-02-17T09:39:44.701Z,33.37
2018-02-17T09:42:12.214Z,34.37
2018-02-17T09:44:39.730Z,36.57
2018-02-17T09:47:07.388Z,36.27
2018-02-17T09:49:34.921Z,33.73
2018-02-17T09:52:02.492Z,38.77
2018-02-17T09:54:30.170Z,33.93
2018-02-17T09:56:57.869Z,36.23
2018-02-17T09:59:25.412Z,33.37
2018-02-17T10:01:53.082Z,33.00
2018-02-17T10:04:20.630Z,29.20
2018-02-17T10:06:48.162Z,27.73
2018-02-17T10:09:15.712Z,29.07
2018-02-17T10:11:43.254Z,26.67
2018-02-17T10:14:10.784Z,27.80
2018-02-17T10:16:38.337Z,24.23
2018-02-17T10:19:05.871Z,25.13
2018-02-17T10:21:33.420Z,23.70
2018-02-17T10:24:00.961Z,26.47
2018-02-17T10:26:28.583Z,26.50
2018-02-17T10:28:56.142Z,27.10
2018-02-17T10:31:23.695Z,27.10
2018-02-17T10:33:51.273Z,29.27
2018-02-17T10:36:18.838Z,27.73
2018-02-17T10:38:46.373Z,26.70
2018-02-17T10:41:13.909Z,25.27
2018-02-17T10:43:41.435Z,25.07
2018-02-17T10:46:08.984Z,23.90
2018-02-17T10:48:36.529Z,24.17
2018-02-17T10:51:04.048Z,26.10
2018-02-17T10:53:31.601Z,23.80
2018-02-17T10:55:59.132Z,25.07
2018-02-17T10:58:26.677Z,24.57
2018-02-17T11:00:54.973Z,24.00
2018-02-17T11:03:22.498Z,22.97
2018-02-17T11:05:50.023Z,23.90
2018-02-17T11:08:17.571Z,25.50
2018-02-17T11:10:45.104Z,26.07
2018-02-17T11:13:12.626Z,25.83
2018-02-17T11:15:40.147Z,23.93
2018-02-17T11:18:07.681Z,23.87
2018-02-17T11:20:35.241Z,23.40
2018-02-17T11:23:02.820Z,21.90
2018-02-17T11:25:30.332Z,22.53
2018-02-17T11:27:57.852Z,22.40
2018-02-17T11:30:25.402Z,24.60
2018-02-17T11:32:52.925Z,22.77
2018-02-17T11:35:20.466Z,21.70
2018-02-17T11:37:48.007Z,23.50
2018-02-17T11:40:15.531Z,19.40
2018-02-17T11:42:43.227Z,17.93
2018-02-17T11:45:10.763Z,20.70
2018-02-17T11:47:38.338Z,20.60
2018-02-17T11:50:05.871Z,20.30
2018-02-17T11:52:33.389Z,18.53
2018-02-17T11:55:01.093Z,21.07
2018-02-17T11:57:28.644Z,20.57
2018-02-17T11:59:56.175Z,21.87
2018-02-17T12:02:23.754Z,20.67
2018-02-17T12:04:51.286Z,19.60
2018-02-17T12:07:18.854Z,20.83
2018-02-17T12:09:46.396Z,20.50
2018-02-17T12:12:13.928Z,21.67
2018-02-17T12:14:41.494Z,21.70
2018-02-17T12:17:09.026Z,23.10
2018-02-17T12:19:36.558Z,23.50
2018-02-17T12:22:04.094Z,22.27
2018-02-17T12:24:31.647Z,21.20
2018-02-17T12:26:59.319Z,22.97
2018-02-17T12:29:26.838Z,22.53
2018-02-17T12:31:54.401Z,21.90
2018-02-17T12:34:21.982Z,23.10
2018-02-17T12:36:49.480Z,24.70
2018-02-17T12:39:17.057Z,23.97
2018-02-17T12:41:44.583Z,22.03
2018-02-17T12:44:12.182Z,24.90
2018-02-17T12:46:39.698Z,24.00
2018-02-17T12:49:07.223Z,23.13
2018-02-17T12:51:34.760Z,23.27
2018-02-17T12:54:03.224Z,24.60
2018-02-17T12:56:30.782Z,24.03
2018-02-17T12:58:58.295Z,28.77
2018-02-17T13:01:25.844Z,26.00
2018-02-17T13:03:53.358Z,28.57
2018-02-17T13:06:20.885Z,26.97
2018-02-17T13:08:48.417Z,30.00
2018-02-17T13:11:15.938Z,27.07
2018-02-17T13:13:43.551Z,25.37
2018-02-17T13:16:11.065Z,23.67
2018-02-17T13:18:38.582Z,25.60
2018-02-17T13:21:06.116Z,22.17
2018-02-17T13:23:33.654Z,23.23
2018-02-17T13:26:01.225Z,28.00
2018-02-17T13:28:28.764Z,28.70
2018-02-17T13:30:56.303Z,27.97
2018-02-17T13:33:23.868Z,24.17
2018-02-17T13:35:51.425Z,26.70
2018-02-17T13:38:18.989Z,23.80
2018-02-17T13:40:46.538Z,25.80
2018-02-17T13:43:14.305Z,24.43
2018-02-17T13:45:41.863Z,23.80
2018-02-17T13:48:09.409Z,24.07
2018-02-17T13:50:37.206Z,22.87
2018-02-17T13:53:04.754Z,24.83
2018-02-17T13:55:32.295Z,24.30
2018-02-17T13:58:00.027Z,29.20
2018-02-17T14:00:27.416Z,25.13
2018-02-17T14:02:54.955Z,26.77
2018-02-17T14:05:22.505Z,26.67
2018-02-17T14:07:50.040Z,25.00
2018-02-17T14:10:17.568Z,25.63
2018-02-17T14:12:45.183Z,23.67
2018-02-17T14:15:12.707Z,22.07
2018-02-17T14:17:40.261Z,22.30
2018-02-17T14:20:07.807Z,23.10
2018-02-17T14:22:35.335Z,20.97
2018-02-17T14:25:02.941Z,19.40
2018-02-17T14:27:30.472Z,22.97
2018-02-17T14:29:58.003Z,20.50
2018-02-17T14:32:25.559Z,22.23
2018-02-17T14:34:53.077Z,21.60
2018-02-17T14:37:20.613Z,21.57
2018-02-17T14:39:48.163Z,22.10
2018-02-17T14:42:15.696Z,21.40
2018-02-17T14:44:43.296Z,23.00
2018-02-17T14:47:10.875Z,25.20
2018-02-17T14:49:38.431Z,24.13
2018-02-17T14:52:05.985Z,23.80
2018-02-17T14:54:33.512Z,22.00
2018-02-17T14:57:01.077Z,25.27
2018-02-17T14:59:28.608Z,24.93
2018-02-17T15:01:56.474Z,25.47
2018-02-17T15:04:25.160Z,22.10
2018-02-17T15:06:52.700Z,24.80
2018-02-17T15:09:20.250Z,26.10
2018-02-17T15:11:47.814Z,22.97
2018-02-17T15:14:15.550Z,21.57
2018-02-17T15:16:43.076Z,20.47
2018-02-17T15:19:10.602Z,20.43
2018-02-17T15:21:38.139Z,23.20
2018-02-17T15:24:05.696Z,22.50
2018-02-17T15:26:33.378Z,24.83
2018-02-17T15:29:00.911Z,24.80
2018-02-17T15:31:28.474Z,27.30
2018-02-17T15:33:56.063Z,29.20
2018-02-17T15:36:23.630Z,27.70
2018-02-17T15:38:51.162Z,27.93
2018-02-17T15:41:18.761Z,27.20
2018-02-17T15:43:47.261Z,25.43
2018-02-17T15:46:14.787Z,22.70
2018-02-17T15:48:42.403Z,30.17
2018-02-17T15:51:09.927Z,25.90
2018-02-17T15:53:38.762Z,31.30
2018-02-17T15:56:06.436Z,32.07
2018-02-17T15:58:33.958Z,37.60
2018-02-17T16:01:01.535Z,37.00
2018-02-17T16:03:29.068Z,40.03
2018-02-17T16:05:56.608Z,45.87
2018-02-17T16:08:24.137Z,60.13
2018-02-17T16:10:51.674Z,64.10
2018-02-17T16:13:19.227Z,61.40
2018-02-17T16:15:46.849Z,70.63
2018-02-17T16:18:14.390Z,71.50
2018-02-17T16:20:42.016Z,70.30
2018-02-17T16:23:09.621Z,71.50
2018-02-17T16:25:37.165Z,79.33
2018-02-17T16:28:04.698Z,87.87
2018-02-17T16:30:32.245Z,78.07
2018-02-17T16:32:59.804Z,74.57
2018-02-17T16:35:27.400Z,73.90
2018-02-17T16:37:55.053Z,56.27
2018-02-17T16:40:22.657Z,58.43
2018-02-17T16:42:50.193Z,65.03
2018-02-17T16:45:17.898Z,66.40
2018-02-17T16:47:45.904Z,78.63
2018-02-17T16:50:13.505Z,87.63
2018-02-17T16:52:41.186Z,84.33
2018-02-17T16:55:08.783Z,71.80
2018-02-17T16:57:36.340Z,62.77
2018-02-17T17:00:09.753Z,45.93
2018-02-17T17:02:37.266Z,54.90
2018-02-17T17:05:04.920Z,51.50
2018-02-17T17:07:32.474Z,55.67
2018-02-17T17:10:00.004Z,53.60
2018-02-17T17:12:27.539Z,53.40
2018-02-17T17:14:55.077Z,56.90
2018-02-17T17:17:22.844Z,64.00
2018-02-17T17:19:50.390Z,60.53
2018-02-17T17:22:17.907Z,55.30
2018-02-17T17:24:45.432Z,64.60
2018-02-17T17:27:12.996Z,56.10
2018-02-17T17:29:40.557Z,54.27
2018-02-17T17:32:08.159Z,69.97
2018-02-17T17:34:35.700Z,105.00
2018-02-17T17:37:03.239Z,87.60
2018-02-17T17:39:30.776Z,80.17
2018-02-17T17:41:58.304Z,66.43
2018-02-17T17:44:25.884Z,57.03
2018-02-17T17:46:53.450Z,54.50
2018-02-17T17:49:20.983Z,50.57
2018-02-17T17:51:48.508Z,52.30
2018-02-17T17:54:16.034Z,48.50
2018-02-17T17:56:43.832Z,47.10
2018-02-17T17:59:11.357Z,43.03
2018-02-17T18:01:38.917Z,46.13
2018-02-17T18:04:06.450Z,42.50
2018-02-17T18:06:34.310Z,43.83
2018-02-17T18:09:01.838Z,44.00
2018-02-17T18:11:29.685Z,41.83
2018-02-17T18:13:57.264Z,46.10
2018-02-17T18:16:25.715Z,45.40
2018-02-17T18:18:53.280Z,47.80
2018-02-17T18:21:20.809Z,43.20
2018-02-17T18:23:48.361Z,44.70
2018-02-17T18:26:15.935Z,45.27
2018-02-17T18:28:43.761Z,46.30
2018-02-17T18:31:12.396Z,47.30
2018-02-17T18:33:39.936Z,42.70
2018-02-17T18:36:07.455Z,47.77
2018-02-17T18:38:34.966Z,50.90
2018-02-17T18:41:02.504Z,52.70
2018-02-17T18:43:30.046Z,46.27
2018-02-17T18:45:57.560Z,39.60
2018-02-17T18:48:25.070Z,35.07
2018-02-17T18:50:52.618Z,35.27
2018-02-17T18:53:20.512Z,38.03
2018-02-17T18:55:48.086Z,36.10
2018-02-17T18:58:15.607Z,38.50
2018-02-17T19:00:43.157Z,40.90
2018-02-17T19:03:10.709Z,37.30
2018-02-17T19:05:38.236Z,43.93
2018-02-17T19:08:05.788Z,42.90
2018-02-17T19:10:33.345Z,42.43
2018-02-17T19:13:01.699Z,43.23
2018-02-17T19:15:29.237Z,45.67
2018-02-17T19:17:56.761Z,47.00
2018-02-17T19:20:24.283Z,45.07
2018-02-17T19:22:51.791Z,35.33
2018-02-17T19:25:19.338Z,35.20
2018-02-17T19:27:46.908Z,36.77
2018-02-17T19:30:14.809Z,32.20
2018-02-17T19:32:42.355Z,34.13
2018-02-17T19:35:11.100Z,36.30
2018-02-17T19:37:38.618Z,36.03
2018-02-17T19:40:06.155Z,33.00
2018-02-17T19:42:33.716Z,36.60
2018-02-17T19:45:01.869Z,39.13
2018-02-17T19:47:29.416Z,38.83
2018-02-17T19:49:56.955Z,35.67
2018-02-17T19:52:24.554Z,33.87
2018-02-17T19:54:52.104Z,34.70
2018-02-17T19:57:19.626Z,33.63
2018-02-17T19:59:47.145Z,34.03
2018-02-17T20:02:14.666Z,36.13
2018-02-17T20:04:42.196Z,32.43
2018-02-17T20:07:09.758Z,35.40
2018-02-17T20:09:37.305Z,31.30
2018-02-17T20:12:04.853Z,31.00
2018-02-17T20:14:32.379Z,34.83
2018-02-17T20:16:59.910Z,31.20
2018-02-17T20:19:27.561Z,32.23
2018-02-17T20:21:56.015Z,34.87
2018-02-17T20:24:23.534Z,33.90
2018-02-17T20:26:51.048Z,35.13
2018-02-17T20:29:18.576Z,34.40
2018-02-17T20:31:46.140Z,37.27
2018-02-17T20:34:13.689Z,35.87
2018-02-17T20:36:41.230Z,34.83
2018-02-17T20:39:08.750Z,38.07
2018-02-17T20:41:36.289Z,35.53
2018-02-17T20:44:03.848Z,37.43
2018-02-17T20:46:31.393Z,35.40
2018-02-17T20:48:58.956Z,34.67
2018-02-17T20:51:26.478Z,33.93
2018-02-17T20:53:54.031Z,34.40
2018-02-17T20:56:21.616Z,37.70
2018-02-17T20:58:49.151Z,33.83
2018-02-17T21:01:16.723Z,35.90
2018-02-17T21:03:44.296Z,35.50
2018-02-17T21:06:12.004Z,32.73
2018-02-17T21:08:39.521Z,32.83
2018-02-17T21:11:07.042Z,34.37
2018-02-17T21:13:34.595Z,35.37
2018-02-17T21:16:02.123Z,35.03
2018-02-17T21:18:29.656Z,33.70
2018-02-17T21:20:57.192Z,32.40
2018-02-17T21:23:24.707Z,32.60
2018-02-17T21:25:52.256Z,33.27
2018-02-17T21:28:19.774Z,30.70
2018-02-17T21:30:47.343Z,31.93
2018-02-17T21:33:14.881Z,29.70
2018-02-17T21:35:42.419Z,32.93
2018-02-17T21:38:09.950Z,32.50
2018-02-17T21:40:37.493Z,34.93
2018-02-17T21:43:05.047Z,32.93
2018-02-17T21:45:32.584Z,32.00
2018-02-17T21:48:00.118Z,31.23
2018-02-17T21:50:27.642Z,32.37
2018-02-17T21:52:55.176Z,30.40
2018-02-17T21:55:23.389Z,30.23
2018-02-17T21:57:50.920Z,32.10
2018-02-17T22:00:18.480Z,31.77
2018-02-17T22:02:46.017Z,30.30
2018-02-17T22:05:13.552Z,30.27
2018-02-17T22:07:41.076Z,28.80
2018-02-17T22:10:08.598Z,29.30
2018-02-17T22:12:36.232Z,30.67
2018-02-17T22:15:03.785Z,28.70
2018-02-17T22:17:31.313Z,30.10
2018-02-17T22:19:58.852Z,28.60
2018-02-17T22:22:26.404Z,29.47
2018-02-17T22:24:53.968Z,31.33
2018-02-17T22:27:21.502Z,29.57
2018-02-17T22:29:49.048Z,29.33
2018-02-17T22:32:16.589Z,31.00
2018-02-17T22:34:44.119Z,28.90
2018-02-17T22:37:11.697Z,28.20
2018-02-17T22:39:39.227Z,27.67
2018-02-17T22:42:06.827Z,31.67
2018-02-17T22:44:34.378Z,29.87
2018-02-17T22:47:01.898Z,28.63
2018-02-17T22:49:29.549Z,29.37
2018-02-17T22:51:57.068Z,29.80
2018-02-17T22:54:24.652Z,33.20
2018-02-17T22:56:52.206Z,31.53
2018-02-17T22:59:19.737Z,32.67
2018-02-17T23:01:47.356Z,29.67
2018-02-17T23:04:14.885Z,33.77
2018-02-17T23:06:42.410Z,34.03
2018-02-17T23:09:09.968Z,33.50
2018-02-17T23:11:37.498Z,30.70
2018-02-17T23:14:05.052Z,33.80
2018-02-17T23:16:32.578Z,32.40
2018-02-17T23:19:00.108Z,31.27
2018-02-17T23:21:27.644Z,30.60
2018-02-17T23:23:55.175Z,31.90
2018-02-17T23:26:22.769Z,31.23
2018-02-17T23:28:51.095Z,32.60
2018-02-17T23:31:18.673Z,31.17
2018-02-17T23:33:46.204Z,30.60
2018-02-17T23:36:13.741Z,31.60
2018-02-17T23:38:41.265Z,32.60
2018-02-17T23:41:08.795Z,32.40
2018-02-17T23:43:36.344Z,32.43
2018-02-17T23:46:03.867Z,30.43
2018-02-17T23:48:31.395Z,30.43
2018-02-17T23:50:58.916Z,29.00
2018-02-17T23:53:26.433Z,28.37
2018-02-17T23:55:53.942Z,29.90
2018-02-17T23:58:21.476Z,27.30
